Time;durP1;ratioP1;P1;durP2;ratioP2;P2;SDS_P1;SDS_P2;PMS_P1;PMS_P2;Temp;Humidity;BMP_temperature;BMP_pressure;BME280_temperature;BME280_humidity;BME280_pressure;Samples;Min_cycle;Max_cycle;Signal;HPM_P1;HPM_P2
2022/01/11 00:00:23;;;;;;;18.88;10.55;;;-2.70;41.30;;;-3.53;100.00;100346.28;4981998;28;130770;-74
2022/01/11 00:02:55;;;;;;;22.23;11.32;;;-2.70;41.00;;;-3.49;100.00;100349.34;4975888;28;119735;-74
2022/01/11 00:05:28;;;;;;;21.08;12.32;;;-2.70;41.20;;;-3.63;100.00;100351.94;4984959;28;119578;-74
2022/01/11 00:07:58;;;;;;;20.45;11.65;;;-2.70;39.10;;;-3.62;100.00;100339.50;4997286;28;129892;-74
2022/01/11 00:10:29;;;;;;;21.63;11.38;;;-2.70;39.20;;;-3.50;100.00;100347.72;4980896;28;129644;-74
2022/01/11 00:13:00;;;;;;;22.55;11.05;;;-2.70;38.30;;;-3.46;100.00;100343.63;4981179;28;120571;-74
2022/01/11 00:15:32;;;;;;;19.73;10.43;;;-2.70;39.20;;;-3.53;100.00;100346.28;4979412;28;119682;-74
2022/01/11 00:18:01;;;;;;;21.55;11.32;;;-2.70;38.00;;;-3.50;100.00;100353.03;4983795;28;129330;-74
2022/01/11 00:20:29;;;;;;;19.75;10.65;;;-2.70;37.90;;;-3.48;100.00;100348.31;4982102;28;129694;-74
2022/01/11 00:25:43;;;;;;;18.50;10.48;;;-2.70;34.70;;;-3.50;99.86;100363.63;4959107;28;120527;-74
2022/01/11 00:28:14;;;;;;;19.38;10.82;;;-2.70;35.20;;;-3.52;99.77;100368.31;4983676;28;131125;-74
2022/01/11 00:30:56;;;;;;;18.67;10.23;;;-2.70;34.20;;;-3.59;99.78;100373.59;4994111;28;130187;-75
2022/01/11 00:33:33;;;;;;;18.27;10.95;;;-2.70;32.30;;;-3.50;99.82;100366.28;4990791;28;119443;-74
2022/01/11 00:36:03;;;;;;;20.50;10.30;;;-2.70;32.00;;;-3.49;99.11;100367.91;4983719;28;120150;-74
2022/01/11 00:38:35;;;;;;;19.35;10.70;;;-2.70;32.10;;;-3.45;98.98;100364.66;4983666;28;129622;-74
2022/01/11 00:41:06;;;;;;;18.98;11.27;;;-2.70;31.20;;;-3.50;98.93;100371.59;4967022;28;129886;-74
2022/01/11 00:43:37;;;;;;;17.98;9.90;;;-2.70;31.00;;;-3.57;99.51;100381.34;4999838;28;118690;-74
2022/01/11 00:46:10;;;;;;;18.67;11.50;;;-2.70;30.20;;;-3.44;99.47;100386.75;4960570;28;118543;-74
2022/01/11 00:48:41;;;;;;;24.38;11.95;;;-2.70;31.20;;;-3.50;99.20;100388.34;4997457;28;128712;-74
2022/01/11 00:51:12;;;;;;;21.30;11.60;;;-2.70;30.70;;;-3.46;99.33;100388.75;4999750;28;129167;-76
2022/01/11 00:53:45;;;;;;;23.00;12.57;;;-2.70;30.80;;;-3.38;98.53;100380.63;4983152;28;119017;-74
2022/01/11 00:56:14;;;;;;;19.88;11.30;;;-2.70;31.20;;;-3.42;97.99;100383.88;4997135;28;119392;-74
2022/01/11 00:58:43;;;;;;;23.52;12.40;;;-2.70;29.20;;;-3.32;98.28;100382.50;4983246;28;129942;-75
2022/01/11 01:01:16;;;;;;;19.35;11.02;;;-2.70;29.00;;;-3.28;97.43;100386.38;4998983;28;129996;-74
2022/01/11 01:03:45;;;;;;;23.20;11.57;;;-2.70;29.30;;;-3.36;97.80;100391.88;4996829;28;119781;-74
2022/01/11 01:06:14;;;;;;;19.20;11.35;;;-2.60;28.20;;;-3.37;98.03;100392.06;4981741;28;119433;-75
2022/01/11 01:08:44;;;;;;;20.98;11.90;;;-2.60;28.20;;;-3.46;98.46;100388.75;4989595;28;129813;-74
2022/01/11 01:11:13;;;;;;;17.83;10.82;;;-2.60;28.00;;;-3.33;97.77;100388.81;4994006;28;128457;-75
2022/01/11 01:13:48;;;;;;;21.48;11.38;;;-2.60;28.30;;;-3.35;98.01;100393.53;4974129;28;122123;-74
2022/01/11 01:16:17;;;;;;;22.45;12.10;;;-2.60;27.40;;;-3.42;97.86;100397.97;4997165;28;122406;-74
2022/01/11 01:18:55;;;;;;;19.63;10.18;;;-2.60;26.90;;;-3.43;97.31;100398.97;4983229;28;129757;-74
2022/01/11 01:21:24;;;;;;;21.77;12.18;;;-2.70;24.10;;;-3.38;96.90;100396.56;4980576;28;129443;-74
2022/01/11 01:23:53;;;;;;;18.70;9.95;;;-2.60;22.50;;;-3.49;96.30;100402.41;5000200;28;119600;-74
2022/01/11 01:26:22;;;;;;;18.77;9.50;;;-2.60;18.30;;;-3.38;95.81;100395.72;4998284;28;118168;-74
2022/01/11 01:28:50;;;;;;;19.13;10.27;;;-2.60;16.50;;;-3.39;94.07;100408.19;5016228;28;129000;-73
2022/01/11 01:31:21;;;;;;;19.27;10.02;;;-2.60;14.40;;;-3.40;93.60;100387.97;4981072;28;129468;-74
2022/01/11 01:33:55;;;;;;;17.83;9.75;;;-2.60;11.70;;;-3.33;93.83;100396.78;4980555;28;121191;-74
2022/01/11 01:36:25;;;;;;;18.08;9.98;;;-2.60;12.40;;;-3.32;93.34;100400.25;4999423;28;119161;-73
2022/01/11 01:38:54;;;;;;;18.63;9.52;;;-2.60;13.70;;;-3.35;92.82;100392.69;5000858;28;129713;-74
2022/01/11 01:41:23;;;;;;;19.75;9.80;;;-2.60;11.80;;;-3.33;93.05;100386.16;4984322;28;130456;-74
2022/01/11 01:43:56;;;;;;;16.75;9.63;;;-2.60;12.30;;;-3.30;93.48;100396.38;4986927;28;119001;-74
2022/01/11 01:46:26;;;;;;;18.33;9.90;;;-2.60;14.20;;;-3.36;93.89;100394.53;4986140;28;119404;-75
2022/01/11 01:48:58;;;;;;;17.38;9.88;;;-2.70;16.40;;;-3.32;94.36;100401.09;4985671;28;128711;-74
2022/01/11 01:51:27;;;;;;;17.75;10.13;;;-2.70;17.60;;;-3.36;94.56;100399.84;5018740;28;130271;-74
2022/01/11 01:53:57;;;;;;;14.52;8.90;;;-2.70;17.40;;;-3.38;92.71;100401.88;5002646;28;119182;-74
2022/01/11 01:56:28;;;;;;;16.65;9.00;;;-2.70;11.80;;;-3.34;92.43;100400.44;5000679;28;119432;-74
2022/01/11 01:58:58;;;;;;;15.90;9.20;;;-2.70;11.80;;;-3.32;91.67;100401.09;4995133;28;130077;-74
2022/01/11 02:01:34;;;;;;;18.85;9.52;;;-2.70;11.10;;;-3.28;92.17;100406.81;4982527;28;130489;-74
2022/01/11 02:04:03;;;;;;;;;;;-2.70;12.40;;;-3.33;92.24;100409.25;4982823;28;122106;-74
2022/01/11 02:06:32;;;;;;;19.17;9.75;;;-2.70;11.50;;;-3.44;92.11;100413.28;4985780;28;121223;-74
2022/01/11 02:09:00;;;;;;;18.05;8.82;;;-2.70;10.80;;;-3.44;91.82;100408.78;4983786;28;129972;-74
2022/01/11 02:11:29;;;;;;;19.15;9.95;;;-2.70;9.90;;;-3.43;92.09;100414.91;5009901;28;129900;-73
2022/01/11 02:14:02;;;;;;;18.15;9.55;;;-2.70;9.20;;;-3.54;91.90;100407.50;4998225;28;119793;-73
2022/01/11 02:16:32;;;;;;;18.80;9.77;;;-2.70;8.30;;;-3.43;91.21;100414.91;4984337;28;118243;-73
2022/01/11 02:19:01;;;;;;;19.20;9.60;;;-2.70;8.10;;;-3.45;91.75;100414.28;5002158;28;130279;-73
2022/01/11 02:21:31;;;;;;;20.00;10.75;;;-2.70;9.30;;;-3.53;92.09;100411.81;5000177;28;129952;-73
2022/01/11 02:24:02;;;;;;;21.90;11.35;;;-2.70;10.70;;;-3.56;90.77;100420.97;4985178;28;119191;-74
2022/01/11 02:26:35;;;;;;;18.45;9.45;;;-2.80;5.20;;;-3.56;89.32;100420.16;5001723;28;118349;-74
2022/01/11 02:29:04;;;;;;;14.25;7.10;;;-2.70;2.20;;;-3.66;85.53;100431.94;4997280;28;130093;-74
2022/01/11 02:31:38;;;;;;;14.90;7.25;;;-2.70;1.00;;;-3.76;85.59;100422.69;4984665;28;130107;-74
2022/01/11 02:34:08;;;;;;;12.93;7.00;;;-2.70;1.00;;;-3.64;85.15;100424.59;5002273;28;118470;-74
2022/01/11 02:36:44;;;;;;;13.73;7.63;;;-2.70;1.00;;;-3.56;86.29;100425.47;4985240;28;119609;-74
2022/01/11 02:39:34;;;;;;;13.23;6.68;;;-2.70;1.00;;;-3.68;86.85;100431.28;4995646;28;129865;-74
2022/01/11 02:42:09;;;;;;;13.83;6.83;;;-2.70;1.00;;;-3.76;85.51;100426.16;4981690;28;129428;-74
2022/01/11 02:44:41;;;;;;;18.15;6.50;;;-2.80;1.00;;;-3.77;84.06;100435.16;5000709;28;117631;-74
2022/01/11 02:47:14;;;;;;;12.77;5.90;;;-2.80;1.00;;;-3.77;82.13;100429.84;4983453;28;120109;-74
2022/01/11 02:49:43;;;;;;;12.13;5.32;;;-2.80;1.00;;;-3.89;80.71;100429.53;5017804;28;129917;-74
2022/01/11 02:52:36;;;;;;;11.13;5.32;;;-2.80;1.00;;;-3.95;78.29;100446.22;5000577;28;128968;-74
2022/01/11 02:55:12;;;;;;;14.57;5.50;;;-2.80;1.00;;;-3.94;78.44;100437.28;4996061;28;122262;-74
2022/01/11 02:57:42;;;;;;;18.75;7.47;;;-2.80;1.00;;;-3.99;80.02;100442.31;4983719;28;121433;-73
2022/01/11 03:00:25;;;;;;;20.05;8.45;;;-2.90;1.00;;;-3.93;80.75;100435.44;4983893;28;129818;-73
2022/01/11 03:02:54;;;;;;;18.63;9.57;;;-2.90;1.00;;;-3.81;81.00;100439.19;4978766;28;129899;-74
2022/01/11 03:05:27;;;;;;;15.63;7.43;;;-2.90;1.00;;;-3.73;81.18;100446.97;4995728;28;120344;-74
2022/01/11 03:07:59;;;;;;;16.65;8.27;;;-2.90;1.00;;;-3.67;80.88;100435.59;4984620;28;119486;-75
2022/01/11 03:10:32;;;;;;;16.27;7.88;;;-2.90;1.00;;;-3.65;80.79;100433.56;4997622;28;130576;-75
2022/01/11 03:13:04;;;;;;;16.80;7.43;;;-2.90;1.00;;;-3.73;81.15;100436.38;4981839;28;128771;-75
2022/01/11 03:15:34;;;;;;;17.13;8.35;;;-2.90;1.00;;;-3.84;81.34;100434.25;5015024;28;120001;-75
2022/01/11 03:18:07;;;;;;;16.40;7.47;;;-2.90;1.00;;;-3.80;81.42;100443.50;4963486;28;118525;-75
2022/01/11 03:20:43;;;;;;;21.60;8.95;;;-2.90;1.00;;;-3.77;81.67;100443.09;4982337;28;131088;-74
2022/01/11 03:23:16;;;;;;;21.42;9.27;;;-2.90;1.00;;;-3.77;82.57;100445.75;5017538;28;129405;-75
2022/01/11 03:25:47;;;;;;;19.40;8.77;;;-2.80;1.00;;;-3.82;82.63;100448.16;4984241;28;119998;-75
2022/01/11 03:28:17;;;;;;;23.35;10.55;;;-2.90;1.00;;;-3.86;83.15;100436.31;4977087;28;119074;-74
2022/01/11 03:30:47;;;;;;;22.83;10.82;;;-2.90;1.00;;;-3.77;83.35;100444.91;4981504;28;129890;-75
2022/01/11 03:33:16;;;;;;;24.02;11.35;;;-2.90;1.00;;;-3.73;83.62;100441.69;5001034;28;130678;-75
2022/01/11 03:35:48;;;;;;;26.02;10.48;;;-2.90;1.00;;;-3.68;83.34;100439.25;4984476;28;119517;-75
2022/01/11 03:38:22;;;;;;;22.75;10.25;;;-2.90;1.00;;;-3.67;82.75;100451.50;4976958;28;118776;-75
2022/01/11 03:40:56;;;;;;;21.13;8.52;;;-2.90;1.00;;;-3.66;83.01;100453.16;4984406;28;128889;-75
2022/01/11 03:43:26;;;;;;;22.45;8.68;;;-2.90;1.00;;;-3.73;83.34;100452.28;4987116;28;130453;-75
2022/01/11 03:45:55;;;;;;;22.00;9.07;;;-2.90;1.00;;;-3.63;83.68;100463.41;4983992;28;121747;-75
2022/01/11 03:48:23;;;;;;;18.65;8.50;;;-2.90;1.00;;;-3.61;83.08;100455.25;4984160;28;121515;-75
2022/01/11 03:50:54;;;;;;;20.17;8.23;;;-2.90;1.00;;;-3.70;83.22;100462.53;4984081;28;129556;-75
2022/01/11 03:53:50;;;;;;;17.30;9.20;;;-2.90;1.00;;;-3.83;84.04;100465.09;5000460;28;128995;-75
2022/01/11 03:56:22;;;;;;;18.40;8.57;;;-2.90;1.00;;;-3.85;84.31;100464.44;5010037;28;119642;-75
2022/01/11 03:58:57;;;;;;;23.25;9.10;;;-2.90;1.00;;;-3.79;84.70;100468.97;4997618;28;119412;-75
2022/01/11 04:01:25;;;;;;;20.67;9.20;;;-2.90;1.00;;;-3.66;84.43;100466.44;4982376;28;129364;-75
2022/01/11 04:03:54;;;;;;;19.38;8.05;;;-2.90;1.00;;;-3.68;84.23;100465.78;4997872;28;129917;-75
2022/01/11 04:06:26;;;;;;;18.85;8.38;;;-2.90;1.00;;;-3.70;84.79;100472.31;4981258;28;119791;-76
2022/01/11 04:08:56;;;;;;;20.83;9.15;;;-2.90;1.00;;;-3.89;85.75;100464.03;5001601;28;119948;-75
2022/01/11 04:11:25;;;;;;;20.80;8.65;;;-2.90;1.00;;;-3.82;85.63;100472.03;4983661;28;128795;-75
2022/01/11 04:13:55;;;;;;;19.13;8.40;;;-2.90;1.00;;;-3.82;86.31;100474.66;4984093;28;129893;-75
2022/01/11 04:16:26;;;;;;;20.63;9.32;;;-2.90;1.00;;;-3.65;86.30;100473.34;4996939;28;120253;-74
2022/01/11 04:18:56;;;;;;;22.60;9.60;;;-2.90;1.00;;;-3.52;86.07;100469.16;4983418;28;120997;-74
2022/01/11 04:21:25;;;;;;;18.67;9.18;;;-2.90;1.00;;;-3.62;85.31;100470.31;5000834;28;130905;-75
2022/01/11 04:24:02;;;;;;;18.90;8.50;;;-2.90;1.00;;;-3.76;86.16;100468.59;5001150;28;130197;-75
2022/01/11 04:26:31;;;;;;;19.45;9.07;;;-2.90;1.00;;;-3.76;86.89;100479.22;5018159;28;120094;-76
2022/01/11 04:29:08;;;;;;;21.10;9.90;;;-2.90;1.00;;;-3.80;86.99;100472.66;4968815;28;119080;-75
2022/01/11 04:31:37;;;;;;;24.02;9.73;;;-2.90;1.00;;;-3.84;86.91;100468.75;4967678;28;129772;-75
2022/01/11 04:34:10;;;;;;;22.08;10.00;;;-3.00;1.00;;;-3.80;87.20;100477.97;5000777;28;129216;-75
2022/01/11 04:36:39;;;;;;;16.52;9.15;;;-3.00;1.00;;;-3.95;86.60;100483.34;4966936;28;121641;-76
2022/01/11 04:39:13;;;;;;;17.27;8.27;;;-3.00;1.00;;;-3.87;86.73;100483.19;4984449;28;121673;-76
2022/01/11 04:41:42;;;;;;;18.83;8.43;;;-3.00;1.00;;;-4.01;86.65;100498.19;4984368;28;129974;-75
2022/01/11 04:44:11;;;;;;;14.85;7.30;;;-3.10;1.00;;;-4.09;86.66;100494.88;4984633;28;128651;-76
2022/01/11 04:46:41;;;;;;;17.52;7.72;;;-3.20;1.00;;;-4.16;86.49;100487.69;4984806;28;118880;-76
2022/01/11 04:49:11;;;;;;;14.32;6.93;;;-3.20;1.00;;;-4.11;85.99;100492.41;4984350;28;118064;-77
2022/01/11 04:51:39;;;;;;;14.60;6.82;;;-3.30;1.00;;;-4.22;86.27;100490.28;4967581;28;129687;-77
2022/01/11 04:54:09;;;;;;;12.52;5.95;;;-3.30;1.00;;;-4.30;86.12;100498.34;4984601;28;129556;-76
2022/01/11 04:56:38;;;;;;;17.50;6.10;;;-3.40;1.00;;;-4.30;86.12;100498.34;5001578;28;119592;-77
2022/01/11 04:59:07;;;;;;;15.15;6.57;;;-3.40;1.00;;;-4.40;85.50;100496.81;5001039;28;118692;-77
2022/01/11 05:01:40;;;;;;;13.07;6.82;;;-3.40;1.00;;;-4.39;85.64;100495.81;4996595;28;129911;-76
2022/01/11 05:04:09;;;;;;;11.23;5.75;;;-3.40;1.00;;;-4.38;84.77;100507.22;4997370;28;130128;-78
2022/01/11 05:06:38;;;;;;;14.10;7.10;;;-3.50;1.00;;;-4.42;85.16;100501.50;4981241;28;120365;-76
2022/01/11 05:09:09;;;;;;;13.02;6.68;;;-3.50;1.00;;;-4.45;83.95;100509.00;5001269;28;119184;-76
2022/01/11 05:11:38;;;;;;;11.60;6.18;;;-3.50;1.00;;;-4.39;84.57;100506.41;5003558;28;130294;-77
2022/01/11 05:14:07;;;;;;;15.95;7.07;;;-3.50;1.00;;;-4.39;84.34;100511.72;4971242;28;129096;-77
2022/01/11 05:16:50;;;;;;;9.68;5.03;;;-3.50;1.00;;;-4.55;83.68;100520.72;4984690;28;119253;-77
2022/01/11 05:19:19;;;;;;;10.52;4.97;;;-3.60;1.00;;;-4.59;83.64;100516.78;4988081;28;118810;-76
2022/01/11 05:21:49;;;;;;;9.93;4.97;;;-3.60;1.00;;;-4.66;82.50;100525.69;4987228;28;129630;-76
2022/01/11 05:24:20;;;;;;;9.27;4.82;;;-3.70;1.00;;;-4.77;80.33;100525.16;4987193;28;130111;-76
2022/01/11 05:26:53;;;;;;;9.32;4.13;;;-3.80;1.00;;;-4.97;79.76;100524.91;4986697;28;121884;-76
2022/01/11 05:29:22;;;;;;;9.30;4.15;;;-3.90;1.00;;;-4.93;79.87;100525.34;5001144;28;122515;-76
2022/01/11 05:31:50;;;;;;;10.05;4.38;;;-3.90;1.00;;;-4.95;79.26;100535.31;4987229;28;129778;-76
2022/01/11 05:34:20;;;;;;;10.63;5.18;;;-3.90;1.00;;;-4.83;79.69;100547.09;4985860;28;129936;-76
2022/01/11 05:36:48;;;;;;;7.85;4.40;;;-4.00;1.00;;;-5.00;77.37;100541.16;4987587;28;119496;-74
2022/01/11 05:39:18;;;;;;;9.77;4.45;;;-4.10;1.00;;;-5.14;77.67;100552.56;4985448;28;119588;-75
2022/01/11 05:41:47;;;;;;;12.43;4.95;;;-4.10;1.00;;;-5.24;77.80;100555.47;5002698;28;129707;-75
2022/01/11 05:44:16;;;;;;;9.18;4.80;;;-4.20;1.00;;;-5.17;78.25;100555.56;5000613;28;130308;-75
2022/01/11 05:46:45;;;;;;;12.15;4.90;;;-4.20;1.00;;;-5.15;77.41;100554.41;4987187;28;118399;-75
2022/01/11 05:49:13;;;;;;;12.43;5.30;;;-4.20;1.00;;;-5.08;78.02;100560.63;4986574;28;118156;-76
2022/01/11 05:51:42;;;;;;;11.00;5.70;;;-4.20;1.00;;;-5.16;77.40;100565.97;5002420;28;130521;-75
2022/01/11 05:54:11;;;;;;;11.80;5.60;;;-4.20;1.00;;;-5.18;77.89;100569.81;5002802;28;129744;-74
2022/01/11 05:56:41;;;;;;;10.98;5.75;;;-4.20;1.00;;;-5.15;78.30;100570.28;5002973;28;119955;-74
2022/01/11 05:59:10;;;;;;;10.55;5.53;;;-4.20;1.00;;;-5.13;79.14;100573.56;5003307;28;119630;-75
2022/01/11 06:01:40;;;;;;;10.73;5.30;;;-4.20;1.00;;;-5.14;78.36;100571.94;5002702;28;129676;-74
2022/01/11 06:04:09;;;;;;;12.63;6.05;;;-4.20;1.00;;;-5.14;78.89;100577.22;4984737;28;129649;-74
2022/01/11 06:06:38;;;;;;;10.55;5.43;;;-4.20;1.00;;;-5.15;80.18;100580.88;4999591;28;120314;-74
2022/01/11 06:09:07;;;;;;;11.82;5.22;;;-4.30;1.00;;;-5.10;79.19;100583.78;5000636;28;119317;-74
2022/01/11 06:11:35;;;;;;;10.98;5.50;;;-4.20;1.00;;;-5.01;79.36;100583.72;4986813;28;130500;-74
2022/01/11 06:14:05;;;;;;;8.52;5.22;;;-4.20;1.00;;;-5.12;80.30;100591.09;5003396;28;130067;-74
2022/01/11 06:16:34;;;;;;;11.43;5.18;;;-4.20;1.00;;;-5.02;80.33;100595.28;4986035;28;121884;-75
2022/01/11 06:19:04;;;;;;;10.57;5.30;;;-4.20;1.00;;;-5.14;79.85;100597.56;5000147;28;121975;-74
2022/01/11 06:21:42;;;;;;;11.75;6.57;;;-4.20;1.00;;;-5.14;81.00;100598.41;4984345;28;130347;-74
2022/01/11 06:24:11;;;;;;;24.40;13.07;;;-4.20;1.00;;;-5.20;82.03;100619.47;4984323;28;130005;-74
2022/01/11 06:26:41;;;;;;;13.35;7.43;;;-4.30;1.00;;;-5.27;82.64;100616.72;4986690;28;119753;-74
2022/01/11 06:29:12;;;;;;;15.23;8.30;;;-4.30;1.00;;;-5.41;82.50;100613.03;4970295;28;118406;-74
2022/01/11 06:31:42;;;;;;;22.58;10.05;;;-4.40;1.00;;;-5.43;81.15;100621.16;4983119;28;131202;-74
2022/01/11 06:34:11;;;;;;;63.63;21.10;;;-4.50;1.00;;;-5.57;81.18;100637.81;4969534;28;129148;-74
2022/01/11 06:36:40;;;;;;;49.45;16.75;;;-4.50;1.00;;;-5.55;79.85;100633.16;4987800;28;119575;-75
2022/01/11 06:39:09;;;;;;;11.82;5.85;;;-4.60;1.00;;;-5.61;79.52;100639.16;5020205;28;119707;-75
2022/01/11 06:41:39;;;;;;;167.73;50.20;;;-4.60;1.00;;;-5.60;78.46;100646.09;4998600;28;129842;-74
2022/01/11 06:44:12;;;;;;;75.50;22.90;;;-4.70;1.00;;;-5.64;78.76;100652.75;4984366;28;129779;-75
2022/01/11 06:46:44;;;;;;;51.30;18.27;;;-4.70;1.00;;;-5.70;78.87;100661.38;5019634;28;119273;-76
2022/01/11 06:49:16;;;;;;;98.28;31.38;;;-4.70;1.00;;;-5.70;78.01;100659.56;4985513;28;118647;-74
2022/01/11 06:51:45;;;;;;;100.38;27.05;;;-4.80;1.00;;;-5.86;77.58;100664.97;4982783;28;129954;-73
2022/01/11 06:54:14;;;;;;;31.17;10.20;;;-4.90;1.00;;;-6.08;76.60;100674.53;4985741;28;129575;-74
2022/01/11 06:56:45;;;;;;;71.50;22.13;;;-5.00;1.00;;;-6.00;77.93;100682.41;4986366;28;120230;-74
2022/01/11 06:59:17;;;;;;;108.63;38.95;;;-5.00;1.00;;;-6.03;77.77;100675.69;4983250;28;119107;-74
2022/01/11 07:01:46;;;;;;;102.05;35.10;;;-5.00;1.00;;;-5.80;77.57;100680.13;4983654;28;130204;-75
2022/01/11 07:04:26;;;;;;;29.33;13.15;;;-4.90;1.00;;;-5.99;76.06;100676.97;4985069;28;129310;-75
2022/01/11 07:06:58;;;;;;;40.80;16.88;;;-5.00;1.00;;;-5.94;76.12;100681.69;4999533;28;121703;-75
2022/01/11 07:09:27;;;;;;;72.80;24.15;;;-5.10;1.00;;;-6.08;76.17;100678.00;4982295;28;121845;-73
2022/01/11 07:11:57;;;;;;;82.88;33.75;;;-5.10;1.00;;;-6.10;76.18;100684.47;4985617;28;129587;-74
2022/01/11 07:14:28;;;;;;;32.70;15.38;;;-5.20;1.00;;;-6.17;76.37;100681.69;4985615;28;129221;-74
2022/01/11 07:16:58;;;;;;;49.58;19.13;;;-5.30;1.00;;;-6.12;77.15;100686.44;5002260;28;119292;-74
2022/01/11 07:19:29;;;;;;;36.00;12.82;;;-5.30;1.00;;;-6.15;76.21;100685.81;4980604;28;120095;-74
2022/01/11 07:21:59;;;;;;;17.55;7.38;;;-5.30;1.00;;;-6.00;74.39;100693.84;4984716;28;129706;-74
2022/01/11 07:24:29;;;;;;;22.08;9.68;;;-5.30;1.00;;;-5.91;74.24;100691.91;4985277;28;129633;-74
2022/01/11 07:26:57;;;;;;;34.63;13.77;;;-5.20;1.00;;;-5.91;74.88;100694.56;4985318;28;119668;-74
2022/01/11 07:29:28;;;;;;;14.32;7.30;;;-5.20;1.00;;;-5.93;75.06;100688.63;4982568;28;119741;-74
2022/01/11 07:31:58;;;;;;;19.25;8.13;;;-5.30;1.00;;;-5.60;74.47;100694.53;5000381;28;130133;-73
2022/01/11 07:34:28;;;;;;;21.50;9.10;;;-5.20;1.00;;;-5.80;74.76;100699.47;4984092;28;130114;-74
2022/01/11 07:36:57;;;;;;;60.33;19.77;;;-5.20;1.00;;;-5.58;74.68;100704.94;4985212;28;119280;-74
2022/01/11 07:39:26;;;;;;;15.30;6.10;;;-5.10;1.00;;;-5.54;73.83;100706.25;4985278;28;119491;-73
2022/01/11 07:41:55;;;;;;;14.52;5.82;;;-5.10;1.00;;;-5.59;73.57;100705.94;5000631;28;130858;-73
2022/01/11 07:45:04;;;;;;;15.35;6.57;;;-5.10;1.00;;;-5.60;73.96;100705.13;4975297;28;129797;-73
2022/01/11 07:47:33;;;;;;;13.02;5.97;;;-5.10;1.00;;;-5.47;73.68;100709.84;5000760;28;119638;-74
2022/01/11 07:50:04;;;;;;;10.52;5.35;;;-5.00;1.00;;;-5.23;72.85;100718.59;4985098;28;119721;-74
2022/01/11 07:52:32;;;;;;;8.98;5.10;;;-4.90;1.00;;;-5.16;72.56;100714.22;4984632;28;129698;-73
2022/01/11 07:55:02;;;;;;;9.10;4.97;;;-4.90;1.00;;;-5.22;72.82;100717.56;4982902;28;129850;-74
2022/01/11 07:57:33;;;;;;;10.48;4.78;;;-5.00;1.00;;;-5.58;72.54;100728.75;4979848;28;122282;-73
2022/01/11 08:00:03;;;;;;;12.32;5.95;;;-5.10;1.00;;;-5.57;73.74;100724.28;4981603;28;121915;-72
2022/01/11 08:02:44;;;;;;;12.60;6.28;;;-5.10;1.00;;;-5.47;73.34;100731.00;4982416;28;130231;-72
2022/01/11 08:05:27;;;;;;;11.75;6.20;;;-5.10;1.00;;;-5.61;73.76;100729.09;4982452;28;129838;-73
2022/01/11 08:07:57;;;;;;;13.20;6.53;;;-5.10;1.00;;;-5.50;74.65;100725.22;4982998;28;118734;-73
2022/01/11 08:10:32;;;;;;;11.30;5.43;;;-5.10;1.00;;;-5.35;73.48;100744.63;4984370;28;120122;-73
2022/01/11 08:13:06;;;;;;;12.18;4.75;;;-5.00;1.00;;;-5.54;72.72;100745.91;4980942;28;129421;-72
2022/01/11 08:15:37;;;;;;;7.70;4.63;;;-5.00;1.00;;;-5.44;72.37;100741.25;4964489;28;129593;-72
2022/01/11 08:18:08;;;;;;;10.80;4.97;;;-5.00;1.00;;;-5.46;73.83;100745.88;4980919;28;119653;-73
2022/01/11 08:20:37;;;;;;;8.70;4.25;;;-5.10;1.00;;;-5.80;74.04;100740.94;4968023;28;118666;-73
2022/01/11 08:23:08;;;;;;;10.70;4.53;;;-5.10;1.00;;;-5.56;74.28;100737.34;4982638;28;129542;-72
2022/01/11 08:25:38;;;;;;;9.65;4.60;;;-5.10;1.00;;;-5.55;73.73;100746.91;4983874;28;129564;-72
2022/01/11 08:28:07;;;;;;;9.90;5.13;;;-5.10;1.00;;;-5.24;72.93;100748.69;4982029;28;120269;-72
2022/01/11 08:30:39;;;;;;;24.58;10.20;;;-5.00;1.00;;;-5.63;73.30;100746.97;4981196;28;119835;-73
2022/01/11 08:33:12;;;;;;;20.95;7.70;;;-5.10;1.00;;;-5.84;73.13;100751.06;4983817;28;130538;-72
2022/01/11 08:35:42;;;;;;;35.97;13.00;;;-5.30;1.00;;;-5.88;74.34;100757.66;4983789;28;129946;-73
2022/01/11 08:38:13;;;;;;;63.20;19.13;;;-5.30;1.00;;;-5.87;73.80;100759.34;4984636;28;119399;-73
2022/01/11 08:40:43;;;;;;;121.03;36.38;;;-5.20;1.00;;;-5.73;74.77;100762.22;4989592;28;119153;-73
2022/01/11 08:43:14;;;;;;;49.85;15.60;;;-5.10;1.00;;;-5.73;74.49;100757.78;5004210;28;129456;-72
2022/01/11 08:45:44;;;;;;;17.10;5.93;;;-5.10;1.00;;;-5.38;72.26;100765.34;5004075;28;129686;-75
2022/01/11 08:48:16;;;;;;;13.27;4.80;;;-5.10;1.00;;;-5.46;73.35;100753.78;5002649;28;123089;-72
2022/01/11 08:50:56;;;;;;;8.40;3.55;;;-5.10;1.00;;;-5.60;72.38;100758.00;5003656;28;121557;-72
2022/01/11 08:53:28;;;;;;;12.55;5.55;;;-5.20;1.00;;;-5.26;72.29;100763.94;5001727;28;129955;-73
2022/01/11 08:55:58;;;;;;;14.25;5.00;;;-5.00;1.00;;;-5.02;71.38;100762.09;5000501;28;129742;-73
2022/01/11 08:58:28;;;;;;;22.70;9.10;;;-4.90;1.00;;;-5.20;70.86;100763.22;5003623;28;119942;-73
2022/01/11 09:00:59;;;;;;;11.25;5.13;;;-4.90;1.00;;;-5.27;71.37;100770.22;5003649;28;119101;-72
2022/01/11 09:03:30;;;;;;;12.05;4.88;;;-5.00;1.00;;;-5.42;71.44;100768.34;5003473;28;129334;-73
2022/01/11 09:06:00;;;;;;;11.98;6.10;;;-5.10;1.00;;;-5.39;72.30;100763.69;4987166;28;129290;-73
2022/01/11 09:08:30;;;;;;;11.57;5.80;;;-5.00;1.00;;;-5.39;72.45;100779.56;5003528;28;119378;-73
2022/01/11 09:10:59;;;;;;;22.52;8.02;;;-5.10;1.00;;;-5.66;72.27;100771.13;5003245;28;119341;-73
2022/01/11 09:13:27;;;;;;;34.65;10.55;;;-5.20;1.00;;;-5.97;73.10;100775.44;4998733;28;129931;-72
2022/01/11 09:15:55;;;;;;;15.77;6.13;;;-5.20;1.00;;;-5.83;73.63;100784.44;5003546;28;129903;-72
2022/01/11 09:18:26;;;;;;;22.90;7.57;;;-5.20;1.00;;;-5.90;73.83;100772.91;4987193;28;118858;-73
2022/01/11 09:21:00;;;;;;;73.13;22.35;;;-5.20;1.00;;;-5.58;73.66;100781.66;5000842;28;119435;-72
2022/01/11 09:23:29;;;;;;;24.33;7.90;;;-5.10;1.00;;;-5.43;72.18;100781.75;5003330;28;129848;-73
2022/01/11 09:25:59;;;;;;;15.57;6.05;;;-5.00;1.00;;;-5.43;72.18;100769.31;5003664;28;129576;-73
2022/01/11 09:28:28;;;;;;;33.03;10.55;;;-5.00;1.00;;;-5.31;72.02;100776.88;5004099;28;119579;-73
2022/01/11 09:30:56;;;;;;;49.97;18.45;;;-4.90;1.00;;;-5.46;72.16;100774.97;5002841;28;120270;-73
2022/01/11 09:33:27;;;;;;;41.47;12.75;;;-4.90;1.00;;;-5.51;70.45;100787.09;5000038;28;129960;-73
2022/01/11 09:35:56;;;;;;;33.92;11.63;;;-5.00;1.00;;;-5.52;71.24;100780.94;5003077;28;129234;-73
2022/01/11 09:38:29;;;;;;;19.58;7.35;;;-5.00;1.00;;;-5.67;71.94;100772.09;5002387;28;121590;-73
2022/01/11 09:40:59;;;;;;;15.63;7.05;;;-5.10;1.00;;;-5.63;70.20;100771.59;5002225;28;122079;-73
2022/01/11 09:43:31;;;;;;;33.00;10.88;;;-5.10;1.00;;;-5.72;71.63;100782.38;4999936;28;130084;-73
2022/01/11 09:46:06;;;;;;;14.18;6.03;;;-5.10;1.00;;;-5.60;71.35;100773.06;4979358;28;130057;-73
2022/01/11 09:48:37;;;;;;;39.08;14.65;;;-5.10;1.00;;;-5.71;72.70;100781.41;4966898;28;119449;-73
2022/01/11 09:51:07;;;;;;;26.17;11.07;;;-5.20;1.00;;;-5.42;71.86;100776.28;5014111;28;120593;-74
2022/01/11 09:53:40;;;;;;;13.18;5.50;;;-5.00;1.00;;;-5.28;71.16;100782.63;4984004;28;104657;-73
2022/01/11 09:56:13;;;;;;;14.02;6.35;;;-4.90;1.00;;;-5.23;70.15;100779.47;4999951;28;129538;-73
2022/01/11 09:58:43;;;;;;;14.50;7.05;;;-4.90;1.00;;;-5.50;69.87;100789.56;4986803;28;119929;-73
2022/01/11 10:01:32;;;;;;;9.25;4.63;;;-5.00;1.00;;;-5.51;69.62;100781.78;4986588;28;119720;-73
2022/01/11 10:04:14;;;;;;;9.30;4.50;;;-5.10;1.00;;;-5.33;70.17;100776.22;4983045;28;130377;-73
2022/01/11 10:06:56;;;;;;;11.52;6.18;;;-5.10;1.00;;;-5.52;70.75;100780.94;4984148;28;130415;-73
2022/01/11 10:09:29;;;;;;;11.02;5.65;;;-5.10;1.00;;;-5.75;71.49;100790.66;4985963;28;119452;-73
2022/01/11 10:12:02;;;;;;;16.88;6.22;;;-5.20;1.00;;;-5.61;70.99;100782.00;4982283;28;119345;-73
2022/01/11 10:14:34;;;;;;;16.77;7.38;;;-5.20;1.00;;;-5.68;71.98;100792.44;5015516;28;129551;-73
2022/01/11 10:17:11;;;;;;;35.50;16.45;;;-5.20;1.00;;;-5.58;71.99;100781.66;5002952;28;129641;-73
2022/01/11 10:19:45;;;;;;;11.13;5.00;;;-5.20;1.00;;;-5.27;71.81;100794.03;4986626;28;120048;-73
2022/01/11 10:22:23;;;;;;;20.05;9.70;;;-5.10;1.00;;;-5.31;71.24;100787.47;4984193;28;119477;-74